Temp: 17.4°C   Baro: 1010.0mb
  Wind: 2.9mph   Dir: WNW (293°)
  Rain: 0.8mm (0.0mm/hr)
  Solar: 130W/m2  Hum: 90%
 
Bath Spa Weather Station Historical Data
Daily Summary for June 04, 2020 Units:  Both    English   Metric
Daily Weekly Monthly Yearly Custom
  High: Low: Average:
Temperature: 59.9 °F /  15.5 °C 46.8 °F /  8.2 °C 53.2 °F /  11.8 °C
Dew Point: 49.6 °F /  9.8 °C 42.6 °F /  5.9 °C 46 °F /  7.8 °C
Humidity: 88% 58% 77%
Wind Speed: 11.4mph /  18.3km/h - 4.9mph /  7.9km/h
Wind Gust: 20mph /  32.2km/h - -
Wind- - West
Pressure: 29.78 in /  1008.4 hPa 29.52 in /  999.5 hPa -
Precipitation: 0.00 in /  0 mm    
Historical Graphs
 
 
Tabular Data for June 04, 2020
Time Temperature Dew Point Pressure Wind Wind Speed Wind Gust Humidity Rainfall Rate (Hourly) solar
00:04 51 °F /  10.6 °C 47.6 °F /  8.7 °C 29.78in /  1008.4hPa NE 5.6mph /  9km/h 11mph /  17.7km/h 88% 0.00in /  0mm 0 W/m2
00:09 51 °F /  10.6 °C 47.2 °F /  8.4 °C 29.78in /  1008.4hPa NNE 2.9mph /  4.7km/h 12mph /  19.3km/h 87% 0.00in /  0mm 0 W/m2
00:14 51.1 °F /  10.6 °C 47.3 °F /  8.5 °C 29.78in /  1008.4hPa NNE 3.3mph /  5.3km/h 10mph /  16.1km/h 87% 0.00in /  0mm 0 W/m2
00:19 51.1 °F /  10.6 °C 47.3 °F /  8.5 °C 29.78in /  1008.4hPa NNE 4.5mph /  7.2km/h 8mph /  12.9km/h 87% 0.00in /  0mm 0 W/m2
00:24 51.1 °F /  10.6 °C 47.3 °F /  8.5 °C 29.78in /  1008.4hPa NE 2.5mph /  4km/h 9mph /  14.5km/h 87% 0.00in /  0mm 0 W/m2
00:29 51 °F /  10.6 °C 47.2 °F /  8.4 °C 29.78in /  1008.4hPa NNE 3.3mph /  5.3km/h 9mph /  14.5km/h 87% 0.00in /  0mm 0 W/m2
00:34 50.8 °F /  10.4 °C 46.9 °F /  8.3 °C 29.78in /  1008.4hPa NNE 4.7mph /  7.6km/h 12mph /  19.3km/h 86.2% 0.00in /  0mm 0 W/m2
00:39 50.7 °F /  10.4 °C 46.8 °F /  8.2 °C 29.78in /  1008.4hPa NNE 4.4mph /  7.1km/h 10mph /  16.1km/h 86% 0.00in /  0mm 0 W/m2
00:44 50.7 °F /  10.4 °C 46.8 °F /  8.2 °C 29.78in /  1008.4hPa North 6mph /  9.7km/h 12mph /  19.3km/h 86% 0.00in /  0mm 0 W/m2
00:49 50.7 °F /  10.4 °C 46.6 °F /  8.1 °C 29.78in /  1008.4hPa NNE 4mph /  6.4km/h 11mph /  17.7km/h 85.6% 0.00in /  0mm 0 W/m2
00:54 50.7 °F /  10.4 °C 46.4 °F /  8 °C 29.78in /  1008.4hPa North 4.3mph /  6.9km/h 10mph /  16.1km/h 85% 0.00in /  0mm 0 W/m2
00:59 50.5 °F /  10.3 °C 46.2 °F /  7.9 °C 29.78in /  1008.4hPa NNE 6.8mph /  10.9km/h 12mph /  19.3km/h 85% 0.00in /  0mm 0 W/m2
01:04 50.5 °F /  10.3 °C 46 °F /  7.8 °C 29.78in /  1008.4hPa NNE 5.7mph /  9.2km/h 13mph /  20.9km/h 84.2% 0.00in /  0mm 0 W/m2
01:09 50.5 °F /  10.3 °C 45.9 °F /  7.7 °C 29.78in /  1008.4hPa NNE 6mph /  9.7km/h 17mph /  27.4km/h 84% 0.00in /  0mm 0 W/m2
01:13 50.5 °F /  10.3 °C 45.6 °F /  7.6 °C 29.78in /  1008.4hPa NNE 6mph /  9.7km/h 10mph /  16.1km/h 83.3% 0.00in /  0mm 0 W/m2
01:19 50.5 °F /  10.3 °C 45.5 °F /  7.5 °C 29.77in /  1008hPa NNE 3.5mph /  5.6km/h 13mph /  20.9km/h 83% 0.00in /  0mm 0 W/m2
01:24 50.5 °F /  10.3 °C 45.5 °F /  7.5 °C 29.78in /  1008.4hPa NNE 6mph /  9.7km/h 9mph /  14.5km/h 83% 0.00in /  0mm 0 W/m2
01:29 50.5 °F /  10.3 °C 45.5 °F /  7.5 °C 29.77in /  1008hPa NE 2.9mph /  4.7km/h 12mph /  19.3km/h 83% 0.00in /  0mm 0 W/m2
01:34 50.5 °F /  10.3 °C 45.3 °F /  7.4 °C 29.77in /  1008hPa NNE 4.5mph /  7.2km/h 9mph /  14.5km/h 82.6% 0.00in /  0mm 0 W/m2
01:39 50.5 °F /  10.3 °C 45.3 °F /  7.4 °C 29.77in /  1008hPa NNE 1.1mph /  1.8km/h 9mph /  14.5km/h 82% 0.00in /  0mm 0 W/m2
01:44 50.5 °F /  10.3 °C 45.3 °F /  7.4 °C 29.77in /  1008hPa NNE 3.6mph /  5.8km/h 8mph /  12.9km/h 82% 0.00in /  0mm 0 W/m2
01:49 50.4 °F /  10.2 °C 45.2 °F /  7.3 °C 29.77in /  1008hPa NNW 4mph /  6.4km/h 9mph /  14.5km/h 82% 0.00in /  0mm 0 W/m2
01:54 50.5 °F /  10.3 °C 45.2 °F /  7.3 °C 29.76in /  1007.7hPa North 4.7mph /  7.6km/h 10mph /  16.1km/h 82% 0.00in /  0mm 0 W/m2
01:59 50.4 °F /  10.2 °C 45.1 °F /  7.3 °C 29.76in /  1007.7hPa NNE 4.5mph /  7.2km/h 10mph /  16.1km/h 82% 0.00in /  0mm 0 W/m2
02:04 50.5 °F /  10.3 °C 45.3 °F /  7.4 °C 29.76in /  1007.7hPa NNE 5mph /  8km/h 9mph /  14.5km/h 82% 0.00in /  0mm 0 W/m2
02:09 50.5 °F /  10.3 °C 45.2 °F /  7.3 °C 29.76in /  1007.7hPa NNE 4.5mph /  7.2km/h 8mph /  12.9km/h 82% 0.00in /  0mm 0 W/m2
02:14 50.4 °F /  10.2 °C 45.1 °F /  7.3 °C 29.76in /  1007.7hPa NNW 3.1mph /  5km/h 8mph /  12.9km/h 82% 0.00in /  0mm 0 W/m2
02:19 50.4 °F /  10.2 °C 45.1 °F /  7.3 °C 29.76in /  1007.7hPa North 3.2mph /  5.1km/h 8mph /  12.9km/h 82% 0.00in /  0mm 0 W/m2
02:24 50.4 °F /  10.2 °C 45.2 °F /  7.3 °C 29.76in /  1007.7hPa North 3.6mph /  5.8km/h 9mph /  14.5km/h 82.4% 0.00in /  0mm 0 W/m2
02:29 50.4 °F /  10.2 °C 45.3 °F /  7.4 °C 29.76in /  1007.7hPa NNE 2.9mph /  4.7km/h 6mph /  9.7km/h 83% 0.00in /  0mm 0 W/m2
02:34 50.4 °F /  10.2 °C 45.3 °F /  7.4 °C 29.75in /  1007.3hPa NNE 3.6mph /  5.8km/h 9mph /  14.5km/h 83% 0.00in /  0mm 0 W/m2
02:39 50.3 °F /  10.2 °C 45.3 °F /  7.4 °C 29.75in /  1007.3hPa NNE 3.7mph /  6km/h 9mph /  14.5km/h 83% 0.00in /  0mm 0 W/m2
02:44 50.2 °F /  10.1 °C 45.5 °F /  7.5 °C 29.75in /  1007.3hPa NNE 2.9mph /  4.7km/h 8mph /  12.9km/h 84% 0.00in /  0mm 0 W/m2
02:49 50.2 °F /  10.1 °C 45.5 °F /  7.5 °C 29.74in /  1007hPa North 3.2mph /  5.1km/h 8mph /  12.9km/h 84% 0.00in /  0mm 0 W/m2
02:54 50 °F /  10 °C 45.3 °F /  7.4 °C 29.75in /  1007.3hPa NNW 2.9mph /  4.7km/h 5mph /  8km/h 84% 0.00in /  0mm 0 W/m2
02:59 49.8 °F /  9.9 °C 45.1 °F /  7.3 °C 29.75in /  1007.3hPa NNW 2.2mph /  3.5km/h 5mph /  8km/h 84% 0.00in /  0mm 0 W/m2
03:04 49.8 °F /  9.9 °C 45.1 °F /  7.3 °C 29.75in /  1007.3hPa North 1.5mph /  2.4km/h 5mph /  8km/h 84% 0.00in /  0mm 0 W/m2
03:09 49.6 °F /  9.8 °C 45 °F /  7.2 °C 29.74in /  1007hPa NNW 1.5mph /  2.4km/h 5mph /  8km/h 84% 0.00in /  0mm 0 W/m2
03:14 49.6 °F /  9.8 °C 45 °F /  7.2 °C 29.74in /  1007hPa NNW 2.5mph /  4km/h 5mph /  8km/h 84.4% 0.00in /  0mm 0 W/m2
03:19 49.5 °F /  9.7 °C 45 °F /  7.2 °C 29.74in /  1007hPa NNE 2.4mph /  3.9km/h 6mph /  9.7km/h 84.8% 0.00in /  0mm 0 W/m2
03:24 49.4 °F /  9.7 °C 45 °F /  7.2 °C 29.74in /  1007hPa NNE 2.1mph /  3.4km/h 6mph /  9.7km/h 85% 0.00in /  0mm 0 W/m2
03:29 49.3 °F /  9.6 °C 45 °F /  7.2 °C 29.73in /  1006.7hPa NNE 2.3mph /  3.7km/h 9mph /  14.5km/h 85% 0.00in /  0mm 0 W/m2
03:34 49 °F /  9.4 °C 44.7 °F /  7.1 °C 29.73in /  1006.7hPa NNE 2.6mph /  4.2km/h 4mph /  6.4km/h 85% 0.00in /  0mm 0 W/m2
03:39 48.9 °F /  9.4 °C 44.6 °F /  7 °C 29.73in /  1006.7hPa North 1.5mph /  2.4km/h 4mph /  6.4km/h 85% 0.00in /  0mm 0 W/m2
03:44 48.7 °F /  9.3 °C 44.4 °F /  6.9 °C 29.73in /  1006.7hPa NW 2.2mph /  3.5km/h 5mph /  8km/h 85% 0.00in /  0mm 0 W/m2
03:49 48.7 °F /  9.3 °C 44.4 °F /  6.9 °C 29.73in /  1006.7hPa NNW 3mph /  4.8km/h 6mph /  9.7km/h 85% 0.00in /  0mm 0 W/m2
03:54 48.7 °F /  9.3 °C 44.4 °F /  6.9 °C 29.73in /  1006.7hPa NW 3.2mph /  5.1km/h 7mph /  11.3km/h 85% 0.00in /  0mm 0 W/m2
03:59 48.8 °F /  9.3 °C 44.5 °F /  6.9 °C 29.73in /  1006.7hPa North 3.3mph /  5.3km/h 6mph /  9.7km/h 85% 0.00in /  0mm 0 W/m2
04:04 48.9 °F /  9.4 °C 44.6 °F /  7 °C 29.73in /  1006.7hPa NNW 2mph /  3.2km/h 6mph /  9.7km/h 85% 0.00in /  0mm 0 W/m2
04:09 48.9 °F /  9.4 °C 44.6 °F /  7 °C 29.73in /  1006.7hPa NNW 2.5mph /  4km/h 6mph /  9.7km/h 85% 0.00in /  0mm 0 W/m2
04:14 48.7 °F /  9.3 °C 44.4 °F /  6.9 °C 29.73in /  1006.7hPa NNW 3.7mph /  6km/h 8mph /  12.9km/h 85% 0.00in /  0mm 0 W/m2
04:19 48.6 °F /  9.2 °C 44.2 °F /  6.8 °C 29.73in /  1006.7hPa North 3.7mph /  6km/h 9mph /  14.5km/h 85% 0.00in /  0mm 0 W/m2
04:24 48.6 °F /  9.2 °C 44.2 °F /  6.8 °C 29.73in /  1006.7hPa North 3mph /  4.8km/h 9mph /  14.5km/h 85% 0.00in /  0mm 0 W/m2
04:29 48.5 °F /  9.2 °C 44.2 °F /  6.8 °C 29.73in /  1006.7hPa North 4mph /  6.4km/h 8mph /  12.9km/h 85% 0.00in /  0mm 0 W/m2
04:34 48.4 °F /  9.1 °C 44.1 °F /  6.7 °C 29.73in /  1006.7hPa NNW 2.5mph /  4km/h 9mph /  14.5km/h 85% 0.00in /  0mm 0 W/m2
04:39 48.2 °F /  9 °C 43.9 °F /  6.6 °C 29.73in /  1006.7hPa North 2.9mph /  4.7km/h 7mph /  11.3km/h 85% 0.00in /  0mm 0 W/m2
04:44 48 °F /  8.9 °C 43.7 °F /  6.5 °C 29.73in /  1006.7hPa NNW 3.3mph /  5.3km/h 9mph /  14.5km/h 85% 0.00in /  0mm 0 W/m2
04:49 47.7 °F /  8.7 °C 43.4 °F /  6.3 °C 29.72in /  1006.3hPa NNW 4mph /  6.4km/h 8mph /  12.9km/h 85% 0.00in /  0mm 0 W/m2
04:54 47.7 °F /  8.7 °C 43.3 °F /  6.3 °C 29.72in /  1006.3hPa North 2.4mph /  3.9km/h 6mph /  9.7km/h 85% 0.00in /  0mm 0 W/m2
04:59 47.5 °F /  8.6 °C 43.2 °F /  6.2 °C 29.72in /  1006.3hPa NNE 3.3mph /  5.3km/h 7mph /  11.3km/h 85% 0.00in /  0mm 0 W/m2
05:04 47.3 °F /  8.5 °C 43 °F /  6.1 °C 29.72in /  1006.3hPa North 4.4mph /  7.1km/h 10mph /  16.1km/h 85% 0.00in /  0mm 5 W/m2
05:09 47.1 °F /  8.4 °C 42.8 °F /  6 °C 29.72in /  1006.3hPa North 4.2mph /  6.8km/h 10mph /  16.1km/h 85% 0.00in /  0mm 7 W/m2
05:14 47.1 °F /  8.4 °C 42.8 °F /  6 °C 29.72in /  1006.3hPa North 4.1mph /  6.6km/h 7mph /  11.3km/h 85% 0.00in /  0mm 11 W/m2
05:19 46.9 °F /  8.3 °C 42.6 °F /  5.9 °C 29.72in /  1006.3hPa NNW 3.7mph /  6km/h 7mph /  11.3km/h 85% 0.00in /  0mm 14 W/m2
05:24 46.9 °F /  8.3 °C 42.6 °F /  5.9 °C 29.72in /  1006.3hPa NNW 2.5mph /  4km/h 6mph /  9.7km/h 85% 0.00in /  0mm 16 W/m2
05:29 46.9 °F /  8.3 °C 42.6 °F /  5.9 °C 29.72in /  1006.3hPa North 1.6mph /  2.6km/h 7mph /  11.3km/h 85% 0.00in /  0mm 19 W/m2
05:34 46.9 °F /  8.3 °C 42.6 °F /  5.9 °C 29.72in /  1006.3hPa NNW 3mph /  4.8km/h 6mph /  9.7km/h 85% 0.00in /  0mm 21 W/m2
05:39 46.9 °F /  8.3 °C 42.8 °F /  6 °C 29.72in /  1006.3hPa NNW 2.5mph /  4km/h 6mph /  9.7km/h 85.5% 0.00in /  0mm 25 W/m2
05:44 46.8 °F /  8.2 °C 42.8 °F /  6 °C 29.72in /  1006.3hPa North 3.4mph /  5.5km/h 5mph /  8km/h 86% 0.00in /  0mm 28 W/m2
05:49 46.8 °F /  8.2 °C 42.8 °F /  6 °C 29.72in /  1006.3hPa North 2.1mph /  3.4km/h 5mph /  8km/h 86% 0.00in /  0mm 33 W/m2
05:54 46.8 °F /  8.2 °C 42.8 °F /  6 °C 29.72in /  1006.3hPa NW 2.7mph /  4.3km/h 5mph /  8km/h 86% 0.00in /  0mm 42 W/m2
05:59 46.8 °F /  8.2 °C 42.8 °F /  6 °C 29.72in /  1006.3hPa NW 2.7mph /  4.3km/h 7mph /  11.3km/h 86% 0.00in /  0mm 47 W/m2
06:04 46.8 °F /  8.2 °C 42.8 °F /  6 °C 29.72in /  1006.3hPa NW 2.9mph /  4.7km/h 8mph /  12.9km/h 86% 0.00in /  0mm 51 W/m2
06:09 46.8 °F /  8.2 °C 42.8 °F /  6 °C 29.72in /  1006.3hPa WNW 4mph /  6.4km/h 8mph /  12.9km/h 86% 0.00in /  0mm 51 W/m2
06:14 46.8 °F /  8.2 °C 42.8 °F /  6 °C 29.72in /  1006.3hPa NW 3.7mph /  6km/h 8mph /  12.9km/h 86% 0.00in /  0mm 51 W/m2
06:19 46.8 °F /  8.2 °C 42.8 °F /  6 °C 29.72in /  1006.3hPa NW 2.5mph /  4km/h 5mph /  8km/h 86% 0.00in /  0mm 60 W/m2
06:24 46.9 °F /  8.3 °C 43 °F /  6.1 °C 29.72in /  1006.3hPa NW 4mph /  6.4km/h 6mph /  9.7km/h 86% 0.00in /  0mm 63 W/m2
06:29 46.9 °F /  8.3 °C 43 °F /  6.1 °C 29.72in /  1006.3hPa NW 3.7mph /  6km/h 6mph /  9.7km/h 86% 0.00in /  0mm 65 W/m2
06:34 46.9 °F /  8.3 °C 43 °F /  6.1 °C 29.72in /  1006.3hPa NW 1.3mph /  2.1km/h 6mph /  9.7km/h 86% 0.00in /  0mm 70 W/m2
06:39 46.9 °F /  8.3 °C 43 °F /  6.1 °C 29.72in /  1006.3hPa NW 3.9mph /  6.3km/h 7mph /  11.3km/h 86% 0.00in /  0mm 70 W/m2
06:44 46.9 °F /  8.3 °C 43.2 °F /  6.2 °C 29.72in /  1006.3hPa NW 2.3mph /  3.7km/h 7mph /  11.3km/h 86.6% 0.00in /  0mm 72 W/m2
06:49 46.9 °F /  8.3 °C 43.3 °F /  6.3 °C 29.72in /  1006.3hPa NW 2.8mph /  4.5km/h 7mph /  11.3km/h 87% 0.00in /  0mm 86 W/m2
06:54 47.1 °F /  8.4 °C 43.5 °F /  6.4 °C 29.72in /  1006.3hPa WNW 1.6mph /  2.6km/h 4mph /  6.4km/h 87% 0.00in /  0mm 91 W/m2
06:59 47.1 °F /  8.4 °C 43.5 °F /  6.4 °C 29.72in /  1006.3hPa NW 3.6mph /  5.8km/h 7mph /  11.3km/h 87% 0.00in /  0mm 91 W/m2
07:04 47.2 °F /  8.4 °C 43.6 °F /  6.4 °C 29.72in /  1006.3hPa NNW 2.5mph /  4km/h 8mph /  12.9km/h 87% 0.00in /  0mm 102 W/m2
07:09 47.4 °F /  8.6 °C 43.8 °F /  6.6 °C 29.72in /  1006.3hPa NW 3.7mph /  6km/h 8mph /  12.9km/h 87% 0.00in /  0mm 105 W/m2
07:14 47.5 °F /  8.6 °C 43.9 °F /  6.6 °C 29.72in /  1006.3hPa NNW 3.3mph /  5.3km/h 8mph /  12.9km/h 87% 0.00in /  0mm 130 W/m2
07:19 47.7 °F /  8.7 °C 44.1 °F /  6.7 °C 29.72in /  1006.3hPa NNW 3.8mph /  6.1km/h 8mph /  12.9km/h 87% 0.00in /  0mm 156 W/m2
07:24 47.9 °F /  8.8 °C 44.3 °F /  6.8 °C 29.71in /  1006hPa NNW 2.5mph /  4km/h 9mph /  14.5km/h 87% 0.00in /  0mm 169 W/m2
07:29 48.1 °F /  8.9 °C 44.4 °F /  6.9 °C 29.71in /  1006hPa NNW 4.4mph /  7.1km/h 7mph /  11.3km/h 86.8% 0.00in /  0mm 169 W/m2
07:34 48.4 °F /  9.1 °C 44.4 °F /  6.9 °C 29.71in /  1006hPa North 3.3mph /  5.3km/h 7mph /  11.3km/h 86% 0.00in /  0mm 160 W/m2
07:39 48.6 °F /  9.2 °C 44.6 °F /  7 °C 29.72in /  1006.3hPa North 1.7mph /  2.7km/h 6mph /  9.7km/h 86% 0.00in /  0mm 144 W/m2
07:44 48.6 °F /  9.2 °C 44.6 °F /  7 °C 29.71in /  1006hPa North 2.8mph /  4.5km/h 7mph /  11.3km/h 86% 0.00in /  0mm 209 W/m2
07:49 48.6 °F /  9.2 °C 44.7 °F /  7.1 °C 29.71in /  1006hPa NNW 3.6mph /  5.8km/h 7mph /  11.3km/h 86% 0.00in /  0mm 257 W/m2
07:54 48.8 °F /  9.3 °C 44.5 °F /  6.9 °C 29.71in /  1006hPa NNW 4.6mph /  7.4km/h 9mph /  14.5km/h 85% 0.00in /  0mm 267 W/m2
07:59 49 °F /  9.4 °C 44.7 °F /  7.1 °C 29.72in /  1006.3hPa NNW 4.9mph /  7.9km/h 11mph /  17.7km/h 85% 0.00in /  0mm 332 W/m2
08:04 49.5 °F /  9.7 °C 45.1 °F /  7.3 °C 29.71in /  1006hPa North 5.4mph /  8.7km/h 11mph /  17.7km/h 85% 0.00in /  0mm 255 W/m2
08:09 49.6 °F /  9.8 °C 45 °F /  7.2 °C 29.71in /  1006hPa NW 5.6mph /  9km/h 11mph /  17.7km/h 84.2% 0.00in /  0mm 255 W/m2
08:14 49.9 °F /  9.9 °C 45.2 °F /  7.3 °C 29.71in /  1006hPa NW 5.1mph /  8.2km/h 10mph /  16.1km/h 84% 0.00in /  0mm 345 W/m2
08:19 50.6 °F /  10.3 °C 45.7 °F /  7.6 °C 29.71in /  1006hPa North 6.4mph /  10.3km/h 10mph /  16.1km/h 83.2% 0.00in /  0mm 469 W/m2
08:24 51.4 °F /  10.8 °C 46.1 °F /  7.8 °C 29.71in /  1006hPa North 3.2mph /  5.1km/h 10mph /  16.1km/h 82% 0.00in /  0mm 469 W/m2
08:29 51.7 °F /  10.9 °C 45.9 °F /  7.7 °C 29.71in /  1006hPa North 4.3mph /  6.9km/h 9mph /  14.5km/h 80.4% 0.00in /  0mm 485 W/m2
08:34 52.1 °F /  11.2 °C 46.2 °F /  7.9 °C 29.71in /  1006hPa NNE 3.5mph /  5.6km/h 8mph /  12.9km/h 80% 0.00in /  0mm 603 W/m2
08:39 52.7 °F /  11.5 °C 46.5 °F /  8.1 °C 29.71in /  1006hPa NNE 6.7mph /  10.8km/h 12mph /  19.3km/h 79.4% 0.00in /  0mm 265 W/m2
08:44 52 °F /  11.1 °C 45.5 °F /  7.5 °C 29.72in /  1006.3hPa NNE 6.2mph /  10km/h 12mph /  19.3km/h 78.6% 0.00in /  0mm 345 W/m2
08:49 52.2 °F /  11.2 °C 46 °F /  7.8 °C 29.71in /  1006hPa North 4.2mph /  6.8km/h 8mph /  12.9km/h 79.4% 0.00in /  0mm 288 W/m2
08:54 52 °F /  11.1 °C 45.7 °F /  7.6 °C 29.71in /  1006hPa NNW 5.8mph /  9.3km/h 9mph /  14.5km/h 79% 0.00in /  0mm 265 W/m2
08:58 52 °F /  11.1 °C 45.7 °F /  7.6 °C 29.72in /  1006.3hPa NW 3.7mph /  6km/h 9mph /  14.5km/h 79% 0.00in /  0mm 276 W/m2
09:04 52.1 °F /  11.2 °C 45.8 °F /  7.7 °C 29.72in /  1006.3hPa NNW 3.3mph /  5.3km/h 7mph /  11.3km/h 79% 0.00in /  0mm 346 W/m2
09:09 52.9 °F /  11.6 °C 46.5 °F /  8.1 °C 29.71in /  1006hPa NNW 2.2mph /  3.5km/h 6mph /  9.7km/h 78.8% 0.00in /  0mm 548 W/m2
09:14 53.7 °F /  12.1 °C 46.7 °F /  8.2 °C 29.71in /  1006hPa NNW 3.7mph /  6km/h 11mph /  17.7km/h 77.2% 0.00in /  0mm 524 W/m2
09:19 54 °F /  12.2 °C 46.6 °F /  8.1 °C 29.71in /  1006hPa NNW 6.6mph /  10.6km/h 12mph /  19.3km/h 76% 0.00in /  0mm 888 W/m2
09:24 53.8 °F /  12.1 °C 45.9 °F /  7.7 °C 29.71in /  1006hPa NNW 7.6mph /  12.2km/h 15mph /  24.1km/h 74.4% 0.00in /  0mm 499 W/m2
09:29 53.2 °F /  11.8 °C 45.7 °F /  7.6 °C 29.71in /  1006hPa NNW 7.5mph /  12.1km/h 13mph /  20.9km/h 75.6% 0.00in /  0mm 373 W/m2
09:34 53.1 °F /  11.7 °C 45.7 °F /  7.6 °C 29.71in /  1006hPa NNW 7mph /  11.3km/h 15mph /  24.1km/h 75.8% 0.00in /  0mm 408 W/m2
09:39 53.2 °F /  11.8 °C 45.6 °F /  7.6 °C 29.71in /  1006hPa NNW 6.6mph /  10.6km/h 12mph /  19.3km/h 75.4% 0.00in /  0mm 383 W/m2
09:44 53.2 °F /  11.8 °C 45.4 °F /  7.4 °C 29.70in /  1005.6hPa NW 5.6mph /  9km/h 12mph /  19.3km/h 75% 0.00in /  0mm 367 W/m2
09:49 53.2 °F /  11.8 °C 45.5 °F /  7.5 °C 29.70in /  1005.6hPa North 4.6mph /  7.4km/h 12mph /  19.3km/h 75.2% 0.00in /  0mm 338 W/m2
09:54 53.1 °F /  11.7 °C 45.6 °F /  7.6 °C 29.70in /  1005.6hPa NW 6mph /  9.7km/h 13mph /  20.9km/h 75.6% 0.00in /  0mm 311 W/m2
09:59 53.1 °F /  11.7 °C 45.7 °F /  7.6 °C 29.70in /  1005.6hPa NNW 5.2mph /  8.4km/h 11mph /  17.7km/h 75.8% 0.00in /  0mm 295 W/m2
10:04 53.2 °F /  11.8 °C 45.6 °F /  7.6 °C 29.70in /  1005.6hPa NW 4.2mph /  6.8km/h 9mph /  14.5km/h 75.5% 0.00in /  0mm 287 W/m2
10:09 53.1 °F /  11.7 °C 45.7 °F /  7.6 °C 29.70in /  1005.6hPa NNW 4.9mph /  7.9km/h 9mph /  14.5km/h 75.8% 0.00in /  0mm 304 W/m2
10:14 52.9 °F /  11.6 °C 45.5 °F /  7.5 °C 29.70in /  1005.6hPa NW 6.3mph /  10.1km/h 10mph /  16.1km/h 76% 0.00in /  0mm 408 W/m2
10:19 53.2 °F /  11.8 °C 45.7 °F /  7.6 °C 29.70in /  1005.6hPa NW 4.9mph /  7.9km/h 10mph /  16.1km/h 75.6% 0.00in /  0mm 436 W/m2
10:24 53.7 °F /  12.1 °C 45.9 °F /  7.7 °C 29.70in /  1005.6hPa NNW 5mph /  8km/h 10mph /  16.1km/h 75% 0.00in /  0mm 510 W/m2
10:29 53.8 °F /  12.1 °C 45.6 °F /  7.6 °C 29.69in /  1005.3hPa NW 7.2mph /  11.6km/h 11mph /  17.7km/h 73.8% 0.00in /  0mm 503 W/m2
10:34 53.8 °F /  12.1 °C 45.2 °F /  7.3 °C 29.69in /  1005.3hPa NW 5.5mph /  8.9km/h 11mph /  17.7km/h 72.6% 0.00in /  0mm 577 W/m2
10:38 54.1 °F /  12.3 °C 45.2 °F /  7.3 °C 29.69in /  1005.3hPa NW 3mph /  4.8km/h 10mph /  16.1km/h 71.5% 0.00in /  0mm 533 W/m2
10:44 54.7 °F /  12.6 °C 45.4 °F /  7.4 °C 29.69in /  1005.3hPa NW 5.3mph /  8.5km/h 13mph /  20.9km/h 70.6% 0.00in /  0mm 489 W/m2
10:49 54.5 °F /  12.5 °C 44.9 °F /  7.2 °C 29.69in /  1005.3hPa NW 7.2mph /  11.6km/h 10mph /  16.1km/h 69.6% 0.00in /  0mm 466 W/m2
10:54 54.5 °F /  12.5 °C 44.8 °F /  7.1 °C 29.69in /  1005.3hPa NW 3.4mph /  5.5km/h 11mph /  17.7km/h 69.6% 0.00in /  0mm 596 W/m2
10:59 54.8 °F /  12.7 °C 44.9 °F /  7.2 °C 29.69in /  1005.3hPa North 6.7mph /  10.8km/h 12mph /  19.3km/h 69% 0.00in /  0mm 541 W/m2
11:04 54.8 °F /  12.7 °C 44.9 °F /  7.2 °C 29.69in /  1005.3hPa NNW 4.5mph /  7.2km/h 11mph /  17.7km/h 69% 0.00in /  0mm 461 W/m2
11:09 54.8 °F /  12.7 °C 45.2 °F /  7.3 °C 29.69in /  1005.3hPa WNW 5.3mph /  8.5km/h 10mph /  16.1km/h 70% 0.00in /  0mm 536 W/m2
11:14 54.8 °F /  12.7 °C 45.1 °F /  7.3 °C 29.69in /  1005.3hPa North 6.4mph /  10.3km/h 13mph /  20.9km/h 69.8% 0.00in /  0mm 649 W/m2
11:19 55 °F /  12.8 °C 44.6 °F /  7 °C 29.68in /  1005hPa NW 5.3mph /  8.5km/h 13mph /  20.9km/h 68% 0.00in /  0mm 791 W/m2
11:24 55.7 °F /  13.2 °C 45 °F /  7.2 °C 29.69in /  1005.3hPa North 6.4mph /  10.3km/h 11mph /  17.7km/h 67.4% 0.00in /  0mm 649 W/m2
11:29 56.3 °F /  13.5 °C 45.2 °F /  7.3 °C 29.68in /  1005hPa NW 3.7mph /  6km/h 11mph /  17.7km/h 66.4% 0.00in /  0mm 686 W/m2
11:34 56.6 °F /  13.7 °C 46 °F /  7.8 °C 29.68in /  1005hPa NNW 5.1mph /  8.2km/h 8mph /  12.9km/h 67.6% 0.00in /  0mm 552 W/m2
11:39 56.4 °F /  13.6 °C 46.1 °F /  7.8 °C 29.69in /  1005.3hPa NW 5.7mph /  9.2km/h 8mph /  12.9km/h 68.4% 0.00in /  0mm 515 W/m2
11:44 55.9 °F /  13.3 °C 45.9 °F /  7.7 °C 29.68in /  1005hPa WNW 3.2mph /  5.1km/h 8mph /  12.9km/h 69.4% 0.00in /  0mm 301 W/m2
11:49 56.1 °F /  13.4 °C 46.2 °F /  7.9 °C 29.68in /  1005hPa NW 4.4mph /  7.1km/h 11mph /  17.7km/h 69.6% 0.00in /  0mm 320 W/m2
11:54 55.4 °F /  13 °C 45.5 °F /  7.5 °C 29.68in /  1005hPa NW 4mph /  6.4km/h 9mph /  14.5km/h 69.4% 0.00in /  0mm 362 W/m2
11:59 55.7 °F /  13.2 °C 46 °F /  7.8 °C 29.68in /  1005hPa NW 4mph /  6.4km/h 9mph /  14.5km/h 70% 0.00in /  0mm 352 W/m2
12:04 55.5 °F /  13.1 °C 45.8 °F /  7.7 °C 29.68in /  1005hPa WNW 5mph /  8km/h 8mph /  12.9km/h 69.8% 0.00in /  0mm 401 W/m2
12:09 55.7 °F /  13.2 °C 46.2 °F /  7.9 °C 29.68in /  1005hPa WNW 3.3mph /  5.3km/h 8mph /  12.9km/h 70.4% 0.00in /  0mm 555 W/m2
12:14 55.9 °F /  13.3 °C 46.2 °F /  7.9 °C 29.67in /  1004.6hPa NW 6.5mph /  10.5km/h 10mph /  16.1km/h 70% 0.00in /  0mm 657 W/m2
12:19 56.3 °F /  13.5 °C 46.6 °F /  8.1 °C 29.67in /  1004.6hPa NW 4.8mph /  7.7km/h 9mph /  14.5km/h 70% 0.00in /  0mm 642 W/m2
12:24 57.3 °F /  14.1 °C 47 °F /  8.3 °C 29.67in /  1004.6hPa West 3.4mph /  5.5km/h 7mph /  11.3km/h 68.4% 0.00in /  0mm 670 W/m2
12:29 57.7 °F /  14.3 °C 46.9 °F /  8.3 °C 29.67in /  1004.6hPa WNW 3.5mph /  5.6km/h 10mph /  16.1km/h 67% 0.00in /  0mm 626 W/m2
12:34 57.8 °F /  14.3 °C 46.5 °F /  8.1 °C 29.67in /  1004.6hPa NW 5.5mph /  8.9km/h 9mph /  14.5km/h 66.2% 0.00in /  0mm 629 W/m2
12:39 57.6 °F /  14.2 °C 46.3 °F /  7.9 °C 29.67in /  1004.6hPa NW 4.6mph /  7.4km/h 9mph /  14.5km/h 66% 0.00in /  0mm 642 W/m2
12:44 57.9 °F /  14.4 °C 46.3 °F /  7.9 °C 29.67in /  1004.6hPa West 2.9mph /  4.7km/h 8mph /  12.9km/h 65.4% 0.00in /  0mm 654 W/m2
12:49 57.9 °F /  14.4 °C 46.5 °F /  8.1 °C 29.67in /  1004.6hPa NW 5mph /  8km/h 9mph /  14.5km/h 66% 0.00in /  0mm 162 W/m2
12:54 56.8 °F /  13.8 °C 45.9 °F /  7.7 °C 29.66in /  1004.3hPa NW 5.3mph /  8.5km/h 9mph /  14.5km/h 66.8% 0.00in /  0mm 135 W/m2
12:59 56.4 °F /  13.6 °C 45.6 °F /  7.6 °C 29.66in /  1004.3hPa WNW 4.3mph /  6.9km/h 9mph /  14.5km/h 67.2% 0.00in /  0mm 128 W/m2
13:04 56.5 °F /  13.6 °C 45.9 °F /  7.7 °C 29.66in /  1004.3hPa West 4.9mph /  7.9km/h 9mph /  14.5km/h 67.6% 0.00in /  0mm 149 W/m2
13:09 56.7 °F /  13.7 °C 46 °F /  7.8 °C 29.66in /  1004.3hPa NW 3.5mph /  5.6km/h 8mph /  12.9km/h 67.4% 0.00in /  0mm 127 W/m2
13:14 56.6 °F /  13.7 °C 46.1 °F /  7.8 °C 29.66in /  1004.3hPa NW 4.5mph /  7.2km/h 7mph /  11.3km/h 68% 0.00in /  0mm 90 W/m2
13:19 56.5 °F /  13.6 °C 46 °F /  7.8 °C 29.66in /  1004.3hPa West 4.5mph /  7.2km/h 7mph /  11.3km/h 68% 0.00in /  0mm 95 W/m2
13:24 56.4 °F /  13.6 °C 45.9 °F /  7.7 °C 29.66in /  1004.3hPa WNW 2.5mph /  4km/h 6mph /  9.7km/h 68% 0.00in /  0mm 67 W/m2
13:29 56.5 °F /  13.6 °C 46.1 °F /  7.8 °C 29.66in /  1004.3hPa West 2.7mph /  4.3km/h 7mph /  11.3km/h 68.2% 0.00in /  0mm 63 W/m2
13:34 56.4 °F /  13.6 °C 46.1 °F /  7.8 °C 29.65in /  1003.9hPa WNW 6.2mph /  10km/h 10mph /  16.1km/h 68.4% 0.00in /  0mm 98 W/m2
13:39 56.3 °F /  13.5 °C 46.1 °F /  7.8 °C 29.65in /  1003.9hPa WNW 5.3mph /  8.5km/h 9mph /  14.5km/h 68.8% 0.00in /  0mm 162 W/m2
13:44 56.5 °F /  13.6 °C 46.4 °F /  8 °C 29.65in /  1003.9hPa West 7.1mph /  11.4km/h 10mph /  16.1km/h 69% 0.00in /  0mm 195 W/m2
13:49 56.3 °F /  13.5 °C 46.1 °F /  7.8 °C 29.65in /  1003.9hPa West 7mph /  11.3km/h 10mph /  16.1km/h 68.5% 0.00in /  0mm 148 W/m2
13:54 56.3 °F /  13.5 °C 45.9 °F /  7.7 °C 29.65in /  1003.9hPa WNW 4.8mph /  7.7km/h 13mph /  20.9km/h 68% 0.00in /  0mm 111 W/m2
13:59 56.6 °F /  13.7 °C 46.1 °F /  7.8 °C 29.65in /  1003.9hPa West 5.2mph /  8.4km/h 9mph /  14.5km/h 68% 0.00in /  0mm 153 W/m2
14:04 56.8 °F /  13.8 °C 46.3 °F /  7.9 °C 29.65in /  1003.9hPa WNW 5.4mph /  8.7km/h 12mph /  19.3km/h 67.8% 0.00in /  0mm 394 W/m2
14:09 57.5 °F /  14.2 °C 46.1 °F /  7.8 °C 29.64in /  1003.6hPa WNW 6.7mph /  10.8km/h 13mph /  20.9km/h 65.6% 0.00in /  0mm 441 W/m2
14:14 59.1 °F /  15.1 °C 46.6 °F /  8.1 °C 29.64in /  1003.6hPa WNW 5.8mph /  9.3km/h 11mph /  17.7km/h 63.4% 0.00in /  0mm 459 W/m2
14:19 59.2 °F /  15.1 °C 45.9 °F /  7.7 °C 29.64in /  1003.6hPa NW 7mph /  11.3km/h 15mph /  24.1km/h 61.4% 0.00in /  0mm 341 W/m2
14:24 58.5 °F /  14.7 °C 45.3 °F /  7.4 °C 29.63in /  1003.3hPa NW 6.3mph /  10.1km/h 15mph /  24.1km/h 61.6% 0.00in /  0mm 285 W/m2
14:29 58.6 °F /  14.8 °C 45.6 °F /  7.6 °C 29.62in /  1002.9hPa WNW 5.4mph /  8.7km/h 12mph /  19.3km/h 62% 0.00in /  0mm 380 W/m2
14:34 59.9 °F /  15.5 °C 46 °F /  7.8 °C 29.62in /  1002.9hPa West 5.9mph /  9.5km/h 14mph /  22.5km/h 60% 0.00in /  0mm 450 W/m2
14:39 59.8 °F /  15.4 °C 45 °F /  7.2 °C 29.62in /  1002.9hPa West 10mph /  16.1km/h 15mph /  24.1km/h 58% 0.00in /  0mm 401 W/m2
14:44 59.5 °F /  15.3 °C 45.2 °F /  7.3 °C 29.62in /  1002.9hPa West 6mph /  9.7km/h 13mph /  20.9km/h 59% 0.00in /  0mm 325 W/m2
14:49 59.5 °F /  15.3 °C 45.5 °F /  7.5 °C 29.62in /  1002.9hPa WNW 10mph /  16.1km/h 14mph /  22.5km/h 59.6% 0.00in /  0mm 341 W/m2
14:54 59.4 °F /  15.2 °C 45.5 °F /  7.5 °C 29.62in /  1002.9hPa NW 7mph /  11.3km/h 14mph /  22.5km/h 60% 0.00in /  0mm 366 W/m2
14:59 59.4 °F /  15.2 °C 45.6 °F /  7.6 °C 29.62in /  1002.9hPa WNW 7.4mph /  11.9km/h 13mph /  20.9km/h 60.2% 0.00in /  0mm 476 W/m2
15:04 59.7 °F /  15.4 °C 45.9 °F /  7.7 °C 29.62in /  1002.9hPa WNW 5.7mph /  9.2km/h 12mph /  19.3km/h 60% 0.00in /  0mm 330 W/m2
15:09 59.6 °F /  15.3 °C 45.8 °F /  7.7 °C 29.62in /  1002.9hPa NW 6.2mph /  10km/h 15mph /  24.1km/h 60% 0.00in /  0mm 181 W/m2
15:14 59.1 °F /  15.1 °C 45.7 °F /  7.6 °C 29.62in /  1002.9hPa NW 6.1mph /  9.8km/h 15mph /  24.1km/h 61.2% 0.00in /  0mm 190 W/m2
15:19 58.5 °F /  14.7 °C 45.8 °F /  7.7 °C 29.62in /  1002.9hPa NNW 10.4mph /  16.7km/h 19mph /  30.6km/h 62.6% 0.00in /  0mm 253 W/m2
15:24 58.5 °F /  14.7 °C 45.9 °F /  7.7 °C 29.62in /  1002.9hPa NNW 6.8mph /  10.9km/h 14mph /  22.5km/h 63% 0.00in /  0mm 281 W/m2
15:29 58.5 °F /  14.7 °C 45.9 °F /  7.7 °C 29.62in /  1002.9hPa NW 6.1mph /  9.8km/h 12mph /  19.3km/h 63% 0.00in /  0mm 327 W/m2
15:34 58.4 °F /  14.7 °C 45.6 °F /  7.6 °C 29.62in /  1002.9hPa NW 11.2mph /  18km/h 18mph /  29km/h 62.6% 0.00in /  0mm 341 W/m2
15:39 58.4 °F /  14.7 °C 45.8 °F /  7.7 °C 29.62in /  1002.9hPa NNW 7.8mph /  12.6km/h 12mph /  19.3km/h 63% 0.00in /  0mm 320 W/m2
15:44 58.3 °F /  14.6 °C 45.7 °F /  7.6 °C 29.62in /  1002.9hPa NNW 8.1mph /  13km/h 15mph /  24.1km/h 63% 0.00in /  0mm 309 W/m2
15:49 58.4 °F /  14.7 °C 45.9 °F /  7.7 °C 29.62in /  1002.9hPa NW 6.9mph /  11.1km/h 12mph /  19.3km/h 63.2% 0.00in /  0mm 271 W/m2
15:54 58.4 °F /  14.7 °C 45.9 °F /  7.7 °C 29.62in /  1002.9hPa NW 8mph /  12.9km/h 14mph /  22.5km/h 63.2% 0.00in /  0mm 227 W/m2
15:59 58.2 °F /  14.6 °C 46 °F /  7.8 °C 29.62in /  1002.9hPa NW 8.6mph /  13.8km/h 13mph /  20.9km/h 63.8% 0.00in /  0mm 227 W/m2
16:04 58.5 °F /  14.7 °C 46.7 °F /  8.2 °C 29.62in /  1002.9hPa NW 7.3mph /  11.7km/h 14mph /  22.5km/h 64.8% 0.00in /  0mm 232 W/m2
16:09 57.9 °F /  14.4 °C 46.2 °F /  7.9 °C 29.62in /  1002.9hPa NW 9mph /  14.5km/h 16mph /  25.7km/h 65% 0.00in /  0mm 221 W/m2
16:14 57.7 °F /  14.3 °C 46.4 °F /  8 °C 29.62in /  1002.9hPa NW 5.8mph /  9.3km/h 17mph /  27.4km/h 66% 0.00in /  0mm 295 W/m2
16:19 57.9 °F /  14.4 °C 46.5 °F /  8.1 °C 29.62in /  1002.9hPa WNW 6mph /  9.7km/h 13mph /  20.9km/h 65.6% 0.00in /  0mm 341 W/m2
16:24 58.3 °F /  14.6 °C 46.7 °F /  8.2 °C 29.61in /  1002.6hPa NW 7mph /  11.3km/h 14mph /  22.5km/h 65.2% 0.00in /  0mm 248 W/m2
16:29 58.2 °F /  14.6 °C 46.8 °F /  8.2 °C 29.61in /  1002.6hPa WNW 9mph /  14.5km/h 20mph /  32.2km/h 65.8% 0.00in /  0mm 207 W/m2
16:34 57.8 °F /  14.3 °C 46.3 °F /  7.9 °C 29.61in /  1002.6hPa WNW 9.8mph /  15.8km/h 17mph /  27.4km/h 65.6% 0.00in /  0mm 190 W/m2
16:39 57.5 °F /  14.2 °C 46.1 °F /  7.8 °C 29.61in /  1002.6hPa NW 9.2mph /  14.8km/h 14mph /  22.5km/h 66% 0.00in /  0mm 283 W/m2
16:44 57.5 °F /  14.2 °C 46.4 °F /  8 °C 29.61in /  1002.6hPa NW 5.8mph /  9.3km/h 14mph /  22.5km/h 66.4% 0.00in /  0mm 283 W/m2
16:49 57.8 °F /  14.3 °C 46.5 °F /  8.1 °C 29.61in /  1002.6hPa NW 10.1mph /  16.3km/h 17mph /  27.4km/h 66% 0.00in /  0mm 197 W/m2
16:54 57.5 °F /  14.2 °C 46.7 °F /  8.2 °C 29.61in /  1002.6hPa NW 5.9mph /  9.5km/h 16mph /  25.7km/h 67% 0.00in /  0mm 158 W/m2
16:59 57.2 °F /  14 °C 46.4 °F /  8 °C 29.60in /  1002.3hPa WNW 7.1mph /  11.4km/h 14mph /  22.5km/h 67% 0.00in /  0mm 202 W/m2
17:04 57.2 °F /  14 °C 46.4 °F /  8 °C 29.60in /  1002.3hPa WNW 10.5mph /  16.9km/h 17mph /  27.4km/h 67% 0.00in /  0mm 346 W/m2
17:09 57.5 °F /  14.2 °C 46.7 °F /  8.2 °C 29.60in /  1002.3hPa WNW 7.2mph /  11.6km/h 13mph /  20.9km/h 67% 0.00in /  0mm 346 W/m2
17:14 57.5 °F /  14.2 °C 46.7 °F /  8.2 °C 29.60in /  1002.3hPa NW 7.6mph /  12.2km/h 12mph /  19.3km/h 67% 0.00in /  0mm 258 W/m2
17:19 57.4 °F /  14.1 °C 46.6 °F /  8.1 °C 29.60in /  1002.3hPa WNW 6.6mph /  10.6km/h 16mph /  25.7km/h 67% 0.00in /  0mm 181 W/m2
17:24 57.2 °F /  14 °C 46.7 °F /  8.2 °C 29.61in /  1002.6hPa NNW 8.2mph /  13.2km/h 14mph /  22.5km/h 67.8% 0.00in /  0mm 142 W/m2
17:29 56.8 °F /  13.8 °C 46.4 °F /  8 °C 29.61in /  1002.6hPa NW 5.5mph /  8.9km/h 12mph /  19.3km/h 68% 0.00in /  0mm 116 W/m2
17:34 56.8 °F /  13.8 °C 46.5 °F /  8.1 °C 29.60in /  1002.3hPa WNW 7.2mph /  11.6km/h 11mph /  17.7km/h 68.4% 0.00in /  0mm 56 W/m2
17:39 56.7 °F /  13.7 °C 46.6 °F /  8.1 °C 29.60in /  1002.3hPa West 6mph /  9.7km/h 14mph /  22.5km/h 69% 0.00in /  0mm 44 W/m2
17:44 56.4 °F /  13.6 °C 46.5 °F /  8.1 °C 29.60in /  1002.3hPa NW 11.4mph /  18.3km/h 16mph /  25.7km/h 69.6% 0.00in /  0mm 44 W/m2
17:49 55.9 °F /  13.3 °C 46.2 °F /  7.9 °C 29.60in /  1002.3hPa WNW 8.8mph /  14.2km/h 15mph /  24.1km/h 70% 0.00in /  0mm 67 W/m2
17:54 55.9 °F /  13.3 °C 46.5 °F /  8.1 °C 29.60in /  1002.3hPa WNW 6.1mph /  9.8km/h 13mph /  20.9km/h 70.6% 0.00in /  0mm 79 W/m2
17:59 55.9 °F /  13.3 °C 46.8 °F /  8.2 °C 29.60in /  1002.3hPa West 6.8mph /  10.9km/h 12mph /  19.3km/h 71% 0.00in /  0mm 60 W/m2
18:04 55.7 °F /  13.2 °C 46.7 °F /  8.2 °C 29.60in /  1002.3hPa WNW 9.9mph /  15.9km/h 14mph /  22.5km/h 71.6% 0.00in /  0mm 62 W/m2
18:09 55.3 °F /  12.9 °C 46.8 °F /  8.2 °C 29.60in /  1002.3hPa West 10.2mph /  16.4km/h 20mph /  32.2km/h 72.8% 0.00in /  0mm 62 W/m2
18:14 55.2 °F /  12.9 °C 46.8 °F /  8.2 °C 29.60in /  1002.3hPa West 6.4mph /  10.3km/h 12mph /  19.3km/h 73% 0.00in /  0mm 54 W/m2
18:19 55.2 °F /  12.9 °C 47 °F /  8.3 °C 29.60in /  1002.3hPa West 6.8mph /  10.9km/h 12mph /  19.3km/h 73.8% 0.00in /  0mm 67 W/m2
18:24 55.1 °F /  12.8 °C 47 °F /  8.3 °C 29.60in /  1002.3hPa WNW 5mph /  8km/h 11mph /  17.7km/h 74% 0.00in /  0mm 69 W/m2
18:29 55.2 °F /  12.9 °C 47.1 °F /  8.4 °C 29.60in /  1002.3hPa WNW 7mph /  11.3km/h 13mph /  20.9km/h 74% 0.00in /  0mm 63 W/m2
18:34 55 °F /  12.8 °C 46.9 °F /  8.3 °C 29.60in /  1002.3hPa WNW 8.4mph /  13.5km/h 13mph /  20.9km/h 74.2% 0.00in /  0mm 67 W/m2
18:39 54.7 °F /  12.6 °C 46.9 °F /  8.3 °C 29.60in /  1002.3hPa West 6mph /  9.7km/h 13mph /  20.9km/h 75% 0.00in /  0mm 111 W/m2
18:44 54.7 °F /  12.6 °C 46.9 °F /  8.3 °C 29.60in /  1002.3hPa West 6.5mph /  10.5km/h 11mph /  17.7km/h 75% 0.00in /  0mm 111 W/m2
18:49 54.8 °F /  12.7 °C 47 °F /  8.3 °C 29.60in /  1002.3hPa West 6.2mph /  10km/h 11mph /  17.7km/h 75% 0.00in /  0mm 83 W/m2
18:54 54.9 °F /  12.7 °C 47.2 °F /  8.4 °C 29.60in /  1002.3hPa West 6.7mph /  10.8km/h 11mph /  17.7km/h 75.2% 0.00in /  0mm 90 W/m2
18:59 54.9 °F /  12.7 °C 47.6 °F /  8.7 °C 29.60in /  1002.3hPa West 6.5mph /  10.5km/h 11mph /  17.7km/h 76% 0.00in /  0mm 93 W/m2
19:04 55 °F /  12.8 °C 47.7 °F /  8.7 °C 29.60in /  1002.3hPa West 7.4mph /  11.9km/h 12mph /  19.3km/h 76% 0.00in /  0mm 93 W/m2
19:09 55 °F /  12.8 °C 47.7 °F /  8.7 °C 29.59in /  1001.9hPa WNW 6.6mph /  10.6km/h 13mph /  20.9km/h 76% 0.00in /  0mm 84 W/m2
19:14 55 °F /  12.8 °C 47.7 °F /  8.7 °C 29.59in /  1001.9hPa West 4.1mph /  6.6km/h 11mph /  17.7km/h 76% 0.00in /  0mm 70 W/m2
19:19 55 °F /  12.8 °C 47.7 °F /  8.7 °C 29.59in /  1001.9hPa West 6.3mph /  10.1km/h 11mph /  17.7km/h 76% 0.00in /  0mm 70 W/m2
19:24 55 °F /  12.8 °C 47.7 °F /  8.7 °C 29.59in /  1001.9hPa WNW 4mph /  6.4km/h 9mph /  14.5km/h 76% 0.00in /  0mm 72 W/m2
19:29 55.1 °F /  12.8 °C 47.8 °F /  8.8 °C 29.59in /  1001.9hPa West 4.4mph /  7.1km/h 10mph /  16.1km/h 76% 0.00in /  0mm 42 W/m2
19:34 55.2 °F /  12.9 °C 47.8 °F /  8.8 °C 29.59in /  1001.9hPa West 5.6mph /  9km/h 12mph /  19.3km/h 76% 0.00in /  0mm 33 W/m2
19:39 55.2 °F /  12.9 °C 47.8 °F /  8.8 °C 29.59in /  1001.9hPa West 5.2mph /  8.4km/h 12mph /  19.3km/h 76% 0.00in /  0mm 42 W/m2
19:44 55.2 °F /  12.9 °C 47.8 °F /  8.8 °C 29.58in /  1001.6hPa West 8mph /  12.9km/h 14mph /  22.5km/h 76% 0.00in /  0mm 37 W/m2
19:49 55 °F /  12.8 °C 47.7 °F /  8.7 °C 29.58in /  1001.6hPa West 7.8mph /  12.6km/h 13mph /  20.9km/h 76% 0.00in /  0mm 35 W/m2
19:54 55 °F /  12.8 °C 47.7 °F /  8.7 °C 29.58in /  1001.6hPa West 7.3mph /  11.7km/h 15mph /  24.1km/h 76% 0.00in /  0mm 39 W/m2
19:59 55 °F /  12.8 °C 47.7 °F /  8.7 °C 29.58in /  1001.6hPa WNW 4.3mph /  6.9km/h 10mph /  16.1km/h 76% 0.00in /  0mm 32 W/m2
20:04 54.9 °F /  12.7 °C 47.5 °F /  8.6 °C 29.58in /  1001.6hPa WNW 4.8mph /  7.7km/h 11mph /  17.7km/h 76% 0.00in /  0mm 28 W/m2
20:09 54.9 °F /  12.7 °C 47.5 °F /  8.6 °C 29.58in /  1001.6hPa WNW 6.5mph /  10.5km/h 12mph /  19.3km/h 76% 0.00in /  0mm 28 W/m2
20:14 54.9 °F /  12.7 °C 47.5 °F /  8.6 °C 29.58in /  1001.6hPa West 5.8mph /  9.3km/h 14mph /  22.5km/h 76% 0.00in /  0mm 26 W/m2
20:19 54.9 °F /  12.7 °C 47.5 °F /  8.6 °C 29.58in /  1001.6hPa West 4.6mph /  7.4km/h 12mph /  19.3km/h 76% 0.00in /  0mm 11 W/m2
20:24 54.8 °F /  12.7 °C 47.8 °F /  8.8 °C 29.58in /  1001.6hPa West 6mph /  9.7km/h 13mph /  20.9km/h 77% 0.00in /  0mm 14 W/m2
20:29 54.7 °F /  12.6 °C 47.7 °F /  8.7 °C 29.58in /  1001.6hPa WNW 7.1mph /  11.4km/h 15mph /  24.1km/h 77% 0.00in /  0mm 16 W/m2
20:34 54.7 °F /  12.6 °C 47.7 °F /  8.7 °C 29.58in /  1001.6hPa WNW 6.4mph /  10.3km/h 10mph /  16.1km/h 77% 0.00in /  0mm 16 W/m2
20:39 54.5 °F /  12.5 °C 47.8 °F /  8.8 °C 29.58in /  1001.6hPa WNW 6mph /  9.7km/h 12mph /  19.3km/h 77.8% 0.00in /  0mm 12 W/m2
20:44 54.4 °F /  12.4 °C 47.7 °F /  8.7 °C 29.58in /  1001.6hPa WNW 7.4mph /  11.9km/h 12mph /  19.3km/h 78% 0.00in /  0mm 11 W/m2
20:49 54.3 °F /  12.4 °C 48 °F /  8.9 °C 29.58in /  1001.6hPa WNW 6.4mph /  10.3km/h 14mph /  22.5km/h 79% 0.00in /  0mm 11 W/m2
20:54 54.2 °F /  12.3 °C 47.9 °F /  8.8 °C 29.58in /  1001.6hPa West 4.8mph /  7.7km/h 11mph /  17.7km/h 79% 0.00in /  0mm 11 W/m2
20:59 54.1 °F /  12.3 °C 47.9 °F /  8.8 °C 29.57in /  1001.2hPa WNW 6.6mph /  10.6km/h 11mph /  17.7km/h 79.4% 0.00in /  0mm 7 W/m2
21:04 54.1 °F /  12.3 °C 48 °F /  8.9 °C 29.57in /  1001.2hPa WNW 6mph /  9.7km/h 9mph /  14.5km/h 80% 0.00in /  0mm 7 W/m2
21:09 54.1 °F /  12.3 °C 48 °F /  8.9 °C 29.57in /  1001.2hPa WNW 4.4mph /  7.1km/h 11mph /  17.7km/h 80% 0.00in /  0mm 5 W/m2
21:14 54 °F /  12.2 °C 48 °F /  8.9 °C 29.57in /  1001.2hPa West 4.7mph /  7.6km/h 8mph /  12.9km/h 80.2% 0.00in /  0mm 0 W/m2
21:19 54 °F /  12.2 °C 48.2 °F /  9 °C 29.57in /  1001.2hPa West 6mph /  9.7km/h 11mph /  17.7km/h 81% 0.00in /  0mm 0 W/m2
21:24 54 °F /  12.2 °C 48.2 °F /  9 °C 29.57in /  1001.2hPa WNW 5.4mph /  8.7km/h 10mph /  16.1km/h 81% 0.00in /  0mm 0 W/m2
21:29 53.9 °F /  12.2 °C 48.1 °F /  8.9 °C 29.57in /  1001.2hPa West 6.2mph /  10km/h 12mph /  19.3km/h 81% 0.00in /  0mm 0 W/m2
21:34 53.9 °F /  12.2 °C 48.1 °F /  8.9 °C 29.57in /  1001.2hPa West 3.8mph /  6.1km/h 9mph /  14.5km/h 81% 0.00in /  0mm 0 W/m2
21:39 53.8 °F /  12.1 °C 48 °F /  8.9 °C 29.57in /  1001.2hPa West 3.8mph /  6.1km/h 8mph /  12.9km/h 81% 0.00in /  0mm 0 W/m2
21:44 53.8 °F /  12.1 °C 48 °F /  8.9 °C 29.57in /  1001.2hPa West 4.8mph /  7.7km/h 7mph /  11.3km/h 81% 0.00in /  0mm 0 W/m2
21:49 53.8 °F /  12.1 °C 48.2 °F /  9 °C 29.57in /  1001.2hPa WNW 4.2mph /  6.8km/h 10mph /  16.1km/h 81.6% 0.00in /  0mm 0 W/m2
21:54 53.8 °F /  12.1 °C 48.4 °F /  9.1 °C 29.57in /  1001.2hPa WNW 3.3mph /  5.3km/h 7mph /  11.3km/h 82% 0.00in /  0mm 0 W/m2
21:59 53.8 °F /  12.1 °C 48.4 °F /  9.1 °C 29.57in /  1001.2hPa West 3.3mph /  5.3km/h 8mph /  12.9km/h 82% 0.00in /  0mm 0 W/m2
22:04 53.8 °F /  12.1 °C 48.4 °F /  9.1 °C 29.57in /  1001.2hPa WNW 3.2mph /  5.1km/h 7mph /  11.3km/h 82% 0.00in /  0mm 0 W/m2
22:09 53.8 °F /  12.1 °C 48.4 °F /  9.1 °C 29.57in /  1001.2hPa WNW 5.1mph /  8.2km/h 8mph /  12.9km/h 82% 0.00in /  0mm 0 W/m2
22:14 53.8 °F /  12.1 °C 48.6 °F /  9.2 °C 29.57in /  1001.2hPa West 3.4mph /  5.5km/h 7mph /  11.3km/h 82.6% 0.00in /  0mm 0 W/m2
22:19 53.7 °F /  12.1 °C 48.6 °F /  9.2 °C 29.56in /  1000.9hPa West 3.4mph /  5.5km/h 7mph /  11.3km/h 83% 0.00in /  0mm 0 W/m2
22:24 53.6 °F /  12 °C 48.6 °F /  9.2 °C 29.56in /  1000.9hPa West 4.3mph /  6.9km/h 7mph /  11.3km/h 83% 0.00in /  0mm 0 W/m2
22:29 53.6 °F /  12 °C 48.6 °F /  9.2 °C 29.56in /  1000.9hPa West 4.4mph /  7.1km/h 7mph /  11.3km/h 83% 0.00in /  0mm 0 W/m2
22:34 53.5 °F /  11.9 °C 48.8 °F /  9.3 °C 29.56in /  1000.9hPa West 4.1mph /  6.6km/h 8mph /  12.9km/h 84% 0.00in /  0mm 0 W/m2
22:39 53.4 °F /  11.9 °C 48.7 °F /  9.3 °C 29.55in /  1000.6hPa West 4mph /  6.4km/h 8mph /  12.9km/h 84% 0.00in /  0mm 0 W/m2
22:44 53.4 °F /  11.9 °C 48.7 °F /  9.3 °C 29.55in /  1000.6hPa West 5.1mph /  8.2km/h 9mph /  14.5km/h 84% 0.00in /  0mm 0 W/m2
22:49 53.4 °F /  11.9 °C 49 °F /  9.4 °C 29.55in /  1000.6hPa West 4.5mph /  7.2km/h 9mph /  14.5km/h 84.8% 0.00in /  0mm 0 W/m2
22:54 53.4 °F /  11.9 °C 49.1 °F /  9.5 °C 29.55in /  1000.6hPa WNW 4.2mph /  6.8km/h 7mph /  11.3km/h 85% 0.00in /  0mm 0 W/m2
22:59 53.3 °F /  11.8 °C 49.1 °F /  9.5 °C 29.54in /  1000.2hPa West 4.9mph /  7.9km/h 7mph /  11.3km/h 85.4% 0.00in /  0mm 0 W/m2
23:04 53.2 °F /  11.8 °C 49.1 °F /  9.5 °C 29.54in /  1000.2hPa West 5.6mph /  9km/h 8mph /  12.9km/h 86% 0.00in /  0mm 0 W/m2
23:09 53.2 °F /  11.8 °C 49.1 °F /  9.5 °C 29.54in /  1000.2hPa WNW 3.6mph /  5.8km/h 6mph /  9.7km/h 86% 0.00in /  0mm 0 W/m2
23:14 53.2 °F /  11.8 °C 49.3 °F /  9.6 °C 29.54in /  1000.2hPa West 3.3mph /  5.3km/h 5mph /  8km/h 86.4% 0.00in /  0mm 0 W/m2
23:19 53.2 °F /  11.8 °C 49.3 °F /  9.6 °C 29.54in /  1000.2hPa WNW 3.8mph /  6.1km/h 8mph /  12.9km/h 86.6% 0.00in /  0mm 0 W/m2
23:24 53.2 °F /  11.8 °C 49.5 °F /  9.7 °C 29.54in /  1000.2hPa West 3.6mph /  5.8km/h 8mph /  12.9km/h 87% 0.00in /  0mm 0 W/m2
23:28 53.2 °F /  11.8 °C 49.5 °F /  9.7 °C 29.54in /  1000.2hPa WNW 4.2mph /  6.8km/h 6mph /  9.7km/h 87% 0.00in /  0mm 0 W/m2
23:34 53.1 °F /  11.7 °C 49.4 °F /  9.7 °C 29.53in /  999.9hPa West 2.9mph /  4.7km/h 6mph /  9.7km/h 87.4% 0.00in /  0mm 0 W/m2
23:39 53.1 °F /  11.7 °C 49.6 °F /  9.8 °C 29.53in /  999.9hPa WNW 2.1mph /  3.4km/h 5mph /  8km/h 88% 0.00in /  0mm 0 W/m2
23:44 53.1 °F /  11.7 °C 49.6 °F /  9.8 °C 29.53in /  999.9hPa WNW 2.5mph /  4km/h 5mph /  8km/h 88% 0.00in /  0mm 0 W/m2
23:49 53.1 °F /  11.7 °C 49.6 °F /  9.8 °C 29.53in /  999.9hPa West 2.3mph /  3.7km/h 5mph /  8km/h 88% 0.00in /  0mm 0 W/m2
23:54 53.1 °F /  11.7 °C 49.6 °F /  9.8 °C 29.52in /  999.5hPa WNW 3mph /  4.8km/h 5mph /  8km/h 88% 0.00in /  0mm 0 W/m2
Bath Spa Weather
Compliments of Weather Underground - 2 mb